createdAt,value
2023-05-14T00:01:51.997Z,14.40
2023-05-14T00:04:19.663Z,14.40
2023-05-14T00:06:46.596Z,14.30
2023-05-14T00:09:13.321Z,14.30
2023-05-14T00:11:40.026Z,14.20
2023-05-14T00:14:06.783Z,14.20
2023-05-14T00:16:33.527Z,14.20
2023-05-14T00:19:02.559Z,14.20
2023-05-14T00:21:31.799Z,14.20
2023-05-14T00:23:58.535Z,14.20
2023-05-14T00:26:25.348Z,14.20
2023-05-14T00:28:52.070Z,14.20
2023-05-14T00:31:18.737Z,14.20
2023-05-14T00:33:49.925Z,14.30
2023-05-14T00:36:18.708Z,14.30
2023-05-14T00:38:51.056Z,14.30
2023-05-14T00:41:19.963Z,14.20
2023-05-14T00:43:51.249Z,14.20
2023-05-14T00:46:18.044Z,14.20
2023-05-14T00:48:45.360Z,14.20
2023-05-14T00:51:12.114Z,14.30
2023-05-14T00:53:39.077Z,14.20
2023-05-14T00:56:11.061Z,14.20
2023-05-14T00:58:39.950Z,14.20
2023-05-14T01:01:09.099Z,14.20
2023-05-14T01:06:21.080Z,14.30
2023-05-14T01:08:56.327Z,14.20
2023-05-14T01:11:29.901Z,14.20
2023-05-14T01:14:13.136Z,14.10
2023-05-14T01:16:43.019Z,14.10
2023-05-14T01:19:21.223Z,14.10
2023-05-14T01:21:50.351Z,14.10
2023-05-14T01:24:17.054Z,14.10
2023-05-14T01:26:43.710Z,14.10
2023-05-14T01:29:22.754Z,14.20
2023-05-14T01:31:52.397Z,14.10
2023-05-14T01:34:22.682Z,14.10
2023-05-14T01:36:53.336Z,14.20
2023-05-14T01:39:20.624Z,14.20
2023-05-14T01:41:50.976Z,14.10
2023-05-14T01:44:18.377Z,14.30
2023-05-14T01:46:47.262Z,14.10
2023-05-14T01:49:19.620Z,14.10
2023-05-14T01:51:50.964Z,14.00
2023-05-14T01:56:44.912Z,14.10
2023-05-14T01:59:11.587Z,14.00
2023-05-14T02:01:40.786Z,14.00
2023-05-14T02:06:34.609Z,14.10
2023-05-14T02:09:06.568Z,14.10
2023-05-14T02:11:33.290Z,14.10
2023-05-14T02:14:02.485Z,14.00
2023-05-14T02:18:56.569Z,14.00
2023-05-14T02:21:24.275Z,14.70
2023-05-14T02:23:51.213Z,14.00
2023-05-14T02:26:17.924Z,14.00
2023-05-14T02:28:45.732Z,13.90
2023-05-14T02:31:12.500Z,14.00
2023-05-14T02:33:41.466Z,14.40
2023-05-14T02:36:13.259Z,14.00
2023-05-14T02:38:39.998Z,14.00
2023-05-14T02:41:06.919Z,14.10
2023-05-14T02:43:33.642Z,14.00
2023-05-14T02:46:00.408Z,14.50
2023-05-14T02:48:29.466Z,13.90
2023-05-14T02:50:56.114Z,13.90
2023-05-14T02:53:22.794Z,14.00
2023-05-14T02:55:54.198Z,13.90
2023-05-14T02:58:27.831Z,14.00
2023-05-14T03:01:00.424Z,13.90
2023-05-14T03:03:30.138Z,14.00
2023-05-14T03:08:24.638Z,14.00
2023-05-14T03:10:51.711Z,14.00
2023-05-14T03:13:20.733Z,14.00
2023-05-14T03:15:54.697Z,14.00
2023-05-14T03:18:21.634Z,13.90
2023-05-14T03:20:48.397Z,13.90
2023-05-14T03:23:15.406Z,13.80
2023-05-14T03:25:44.484Z,13.80
2023-05-14T03:28:11.211Z,13.80
2023-05-14T03:30:40.415Z,13.90
2023-05-14T03:33:07.366Z,13.90
2023-05-14T03:35:34.086Z,13.90
2023-05-14T03:38:00.752Z,13.90
2023-05-14T03:40:29.988Z,13.90
2023-05-14T03:42:56.764Z,13.90
2023-05-14T03:45:23.417Z,13.90
2023-05-14T03:47:52.512Z,13.80
2023-05-14T03:50:25.510Z,13.80
2023-05-14T03:52:55.016Z,13.80
2023-05-14T03:55:21.889Z,13.80
2023-05-14T03:57:50.743Z,13.90
2023-05-14T04:00:19.749Z,13.80
2023-05-14T04:02:49.090Z,13.80
2023-05-14T04:05:20.502Z,14.20
2023-05-14T04:07:47.372Z,13.90
2023-05-14T04:10:14.120Z,13.90
2023-05-14T04:12:40.903Z,13.90
2023-05-14T04:15:08.292Z,13.90
2023-05-14T04:17:35.245Z,13.90
2023-05-14T04:20:05.102Z,13.90
2023-05-14T04:22:34.278Z,13.80
2023-05-14T04:25:03.196Z,13.80
2023-05-14T04:27:32.110Z,13.90
2023-05-14T04:30:01.552Z,13.90
2023-05-14T04:32:32.981Z,14.00
2023-05-14T04:37:26.956Z,13.90
2023-05-14T04:39:56.450Z,13.90
2023-05-14T04:44:50.328Z,13.90
2023-05-14T04:47:19.633Z,13.90
2023-05-14T04:49:48.610Z,13.90
2023-05-14T04:52:15.421Z,13.90
2023-05-14T04:54:42.163Z,14.00
2023-05-14T04:57:08.967Z,14.00
2023-05-14T04:59:35.700Z,13.90
2023-05-14T05:02:02.498Z,14.00
2023-05-14T05:04:31.711Z,14.00
2023-05-14T05:06:58.536Z,14.10
2023-05-14T05:09:27.411Z,14.10
2023-05-14T05:11:54.131Z,14.10
2023-05-14T05:14:20.874Z,14.10
2023-05-14T05:16:47.695Z,14.20
2023-05-14T05:19:16.784Z,14.20
2023-05-14T05:21:43.971Z,14.20
2023-05-14T05:24:10.683Z,14.20
2023-05-14T05:26:41.852Z,14.20
2023-05-14T05:31:36.668Z,14.20
2023-05-14T05:34:03.772Z,14.30
2023-05-14T05:36:31.014Z,14.20
2023-05-14T05:38:57.800Z,14.20
2023-05-14T05:41:26.785Z,14.30
2023-05-14T05:46:20.726Z,14.30
2023-05-14T05:51:14.739Z,14.50
2023-05-14T05:53:41.524Z,14.40
2023-05-14T05:56:10.675Z,14.30
2023-05-14T06:06:01.412Z,14.40
2023-05-14T06:08:28.138Z,14.40
2023-05-14T06:10:57.105Z,14.50
2023-05-14T06:13:23.809Z,14.50
2023-05-14T06:15:50.537Z,14.40
2023-05-14T06:18:19.721Z,14.50
2023-05-14T06:23:13.652Z,14.60
2023-05-14T06:28:12.502Z,14.70
2023-05-14T06:30:41.985Z,14.90
2023-05-14T06:33:08.989Z,14.90
2023-05-14T06:35:37.843Z,15.00
2023-05-14T06:40:32.074Z,15.50
2023-05-14T06:42:58.896Z,15.60
2023-05-14T06:45:27.779Z,15.80
2023-05-14T06:47:55.781Z,15.70
2023-05-14T06:50:22.712Z,15.60
2023-05-14T06:55:17.066Z,15.50
2023-05-14T06:57:46.081Z,15.50
2023-05-14T07:00:14.318Z,15.60
2023-05-14T07:02:41.144Z,15.60
2023-05-14T07:05:08.711Z,15.60
2023-05-14T07:10:02.943Z,15.60
2023-05-14T07:12:29.739Z,15.60
2023-05-14T07:14:57.144Z,15.70
2023-05-14T07:17:24.782Z,15.70
2023-05-14T07:19:55.861Z,15.80
2023-05-14T07:22:22.648Z,16.00
2023-05-14T07:24:50.157Z,16.10
2023-05-14T07:32:15.552Z,16.40
2023-05-14T07:34:44.982Z,16.70
2023-05-14T07:42:09.040Z,16.90
2023-05-14T07:49:34.426Z,16.60
2023-05-14T07:52:03.822Z,16.60
2023-05-14T07:54:32.945Z,16.60
2023-05-14T08:01:56.787Z,16.70
2023-05-14T08:04:26.396Z,16.70
2023-05-14T08:06:53.266Z,16.80
2023-05-14T08:09:22.213Z,17.60
2023-05-14T08:11:53.596Z,17.80
2023-05-14T08:16:50.483Z,17.50
2023-05-14T08:19:20.183Z,17.30
2023-05-14T08:21:51.736Z,17.30
2023-05-14T08:24:21.783Z,17.20
2023-05-14T08:26:50.864Z,17.20
2023-05-14T08:29:20.698Z,17.20
2023-05-14T08:31:48.471Z,17.30
2023-05-14T08:34:17.947Z,17.30
2023-05-14T08:36:47.300Z,17.30
2023-05-14T08:39:14.027Z,17.30
2023-05-14T08:41:46.021Z,17.40
2023-05-14T08:44:12.684Z,17.50
2023-05-14T08:46:40.522Z,17.50
2023-05-14T08:49:34.183Z,17.70
2023-05-14T08:52:01.241Z,17.80
2023-05-14T08:54:32.417Z,18.10
2023-05-14T08:56:59.541Z,18.40
2023-05-14T08:59:28.930Z,18.60
2023-05-14T09:01:58.610Z,18.80
2023-05-14T09:06:54.248Z,19.30
2023-05-14T09:09:26.572Z,19.30
2023-05-14T09:11:53.685Z,19.40
2023-05-14T09:14:21.024Z,19.80
2023-05-14T09:16:50.225Z,20.00
2023-05-14T09:21:50.319Z,20.60
2023-05-14T09:24:22.462Z,20.90
2023-05-14T09:26:57.646Z,21.00
2023-05-14T09:29:31.175Z,21.50
2023-05-14T09:31:59.292Z,21.60
2023-05-14T09:34:33.285Z,21.30
2023-05-14T09:37:07.783Z,21.30
2023-05-14T09:39:38.126Z,21.20
2023-05-14T09:42:05.423Z,21.20
2023-05-14T09:46:59.530Z,21.10
2023-05-14T09:49:26.237Z,21.20
2023-05-14T09:51:57.063Z,21.30
2023-05-14T09:54:26.113Z,21.40
2023-05-14T09:56:55.082Z,21.50
2023-05-14T09:59:25.191Z,21.60
2023-05-14T10:06:52.826Z,21.60
2023-05-14T10:09:26.155Z,21.70
2023-05-14T10:11:56.264Z,21.60
2023-05-14T10:17:03.825Z,21.60
2023-05-14T10:19:34.296Z,21.50
2023-05-14T10:22:09.959Z,21.50
2023-05-14T10:24:38.801Z,21.40
2023-05-14T10:27:07.999Z,21.40
2023-05-14T10:29:36.359Z,21.40
2023-05-14T10:32:07.726Z,21.20
2023-05-14T10:34:38.275Z,21.10
2023-05-14T10:37:10.513Z,21.10
2023-05-14T10:40:00.003Z,20.90
2023-05-14T10:42:29.377Z,20.80
2023-05-14T10:45:01.956Z,20.70
2023-05-14T10:47:32.480Z,20.50
2023-05-14T10:50:02.186Z,20.30
2023-05-14T10:52:32.138Z,20.20
2023-05-14T10:55:03.120Z,20.10
2023-05-14T10:57:32.679Z,20.00
2023-05-14T11:00:07.251Z,20.00
2023-05-14T11:02:37.335Z,19.90
2023-05-14T11:05:05.952Z,19.90
2023-05-14T11:07:40.480Z,20.00
2023-05-14T11:12:39.567Z,20.10
2023-05-14T11:15:11.789Z,20.20
2023-05-14T11:17:43.273Z,20.30
2023-05-14T11:20:11.873Z,20.70
2023-05-14T11:22:41.013Z,21.00
2023-05-14T11:25:08.689Z,21.20
2023-05-14T11:27:37.533Z,21.30
2023-05-14T11:32:35.090Z,21.60
2023-05-14T11:35:01.847Z,21.60
2023-05-14T11:37:30.698Z,21.50
2023-05-14T11:40:09.741Z,21.40
2023-05-14T11:42:41.797Z,21.50
2023-05-14T11:47:39.285Z,21.40
2023-05-14T11:52:42.409Z,21.50
2023-05-14T11:55:12.794Z,21.50
2023-05-14T11:57:44.348Z,21.30
2023-05-14T12:00:14.859Z,21.20
2023-05-14T12:02:44.073Z,21.10
2023-05-14T12:05:13.643Z,21.10
2023-05-14T12:07:41.887Z,21.00
2023-05-14T12:10:09.203Z,21.00
2023-05-14T12:12:40.307Z,21.00
2023-05-14T12:15:20.534Z,21.60
2023-05-14T12:17:53.574Z,21.60
2023-05-14T12:22:50.042Z,21.40
2023-05-14T12:25:17.355Z,21.30
2023-05-14T12:27:45.422Z,21.20
2023-05-14T12:30:21.779Z,21.20
2023-05-14T12:32:51.749Z,21.20
2023-05-14T12:35:18.993Z,21.30
2023-05-14T12:40:13.271Z,21.30
2023-05-14T12:42:40.126Z,21.60
2023-05-14T12:45:09.648Z,21.90
2023-05-14T12:47:37.137Z,22.10
2023-05-14T12:50:06.909Z,22.20
2023-05-14T12:52:38.433Z,22.20
2023-05-14T12:57:36.493Z,22.00
2023-05-14T13:00:07.798Z,21.90
2023-05-14T13:05:11.103Z,21.80
2023-05-14T13:07:38.234Z,21.80
2023-05-14T13:10:08.150Z,21.90
2023-05-14T13:12:35.027Z,22.10
2023-05-14T13:15:02.018Z,22.30
2023-05-14T13:17:31.472Z,22.40
2023-05-14T13:19:58.253Z,22.40
2023-05-14T13:22:27.212Z,22.30
2023-05-14T13:27:23.596Z,22.10
2023-05-14T13:29:50.286Z,22.00
2023-05-14T13:32:19.398Z,22.00
2023-05-14T13:34:48.557Z,21.90
2023-05-14T13:37:17.637Z,22.30
2023-05-14T13:39:44.350Z,22.80
2023-05-14T13:42:11.050Z,22.80
2023-05-14T13:44:37.762Z,23.30
2023-05-14T13:47:04.798Z,23.60
2023-05-14T13:49:31.478Z,23.80
2023-05-14T13:52:00.558Z,23.90
2023-05-14T13:54:29.404Z,23.90
2023-05-14T13:56:56.098Z,23.80
2023-05-14T14:01:51.529Z,23.70
2023-05-14T14:04:20.930Z,23.50
2023-05-14T14:06:47.684Z,23.60
2023-05-14T14:09:14.442Z,23.60
2023-05-14T14:11:43.772Z,23.70
2023-05-14T14:14:12.928Z,23.80
2023-05-14T14:16:39.740Z,23.80
2023-05-14T14:19:07.086Z,24.10
2023-05-14T14:21:39.766Z,23.90
2023-05-14T14:24:09.058Z,23.60
2023-05-14T14:29:02.812Z,23.40
2023-05-14T14:31:29.495Z,23.30
2023-05-14T14:33:56.345Z,23.10
2023-05-14T14:36:23.045Z,23.00
2023-05-14T14:38:52.158Z,22.90
2023-05-14T14:41:18.937Z,22.80
2023-05-14T14:43:45.752Z,22.60
2023-05-14T14:48:42.709Z,22.50
2023-05-14T14:51:09.676Z,22.50
2023-05-14T14:53:37.251Z,22.50
2023-05-14T14:56:04.411Z,22.50
2023-05-14T14:58:31.267Z,22.50
2023-05-14T15:01:01.455Z,22.50
2023-05-14T15:03:31.381Z,22.40
2023-05-14T15:08:27.821Z,22.40
2023-05-14T15:10:57.752Z,22.30
2023-05-14T15:13:25.027Z,22.30
2023-05-14T15:15:58.869Z,22.20
2023-05-14T15:18:26.128Z,22.20
2023-05-14T15:20:58.933Z,22.10
2023-05-14T15:23:28.414Z,21.90
2023-05-14T15:25:55.075Z,21.90
2023-05-14T15:33:21.436Z,21.80
2023-05-14T15:38:15.340Z,21.70
2023-05-14T15:40:42.037Z,21.60
2023-05-14T15:43:10.831Z,21.50
2023-05-14T15:45:39.627Z,21.50
2023-05-14T15:48:06.589Z,21.40
2023-05-14T15:50:33.407Z,21.30
2023-05-14T15:55:27.808Z,21.90
2023-05-14T15:57:54.488Z,22.20
2023-05-14T16:00:24.877Z,22.40
2023-05-14T16:02:52.589Z,22.70
2023-05-14T16:05:19.331Z,22.90
2023-05-14T16:07:46.087Z,23.10
2023-05-14T16:10:12.848Z,23.30
2023-05-14T16:12:39.595Z,23.50
2023-05-14T16:15:07.901Z,23.80
2023-05-14T16:17:34.934Z,24.00
2023-05-14T16:20:01.830Z,24.20
2023-05-14T16:22:29.345Z,24.40
2023-05-14T16:24:56.013Z,23.90
2023-05-14T16:27:25.252Z,24.20
2023-05-14T16:29:52.026Z,24.10
2023-05-14T16:32:19.038Z,24.10
2023-05-14T16:34:49.856Z,24.60
2023-05-14T16:37:17.646Z,24.60
2023-05-14T16:39:51.546Z,24.20
2023-05-14T16:42:18.291Z,24.10
2023-05-14T16:44:45.035Z,23.90
2023-05-14T16:47:12.061Z,23.90
2023-05-14T16:49:38.917Z,23.70
2023-05-14T16:52:08.392Z,23.60
2023-05-14T16:54:35.520Z,23.50
2023-05-14T16:57:04.965Z,23.40
2023-05-14T17:01:58.980Z,23.00
2023-05-14T17:04:30.462Z,22.80
2023-05-14T17:06:57.486Z,22.60
2023-05-14T17:09:26.367Z,22.60
2023-05-14T17:11:53.043Z,22.60
2023-05-14T17:14:19.697Z,22.50
2023-05-14T17:16:46.368Z,22.50
2023-05-14T17:19:13.038Z,22.00
2023-05-14T17:21:39.911Z,22.40
2023-05-14T17:24:09.337Z,22.40
2023-05-14T17:26:37.634Z,22.80
2023-05-14T17:29:04.365Z,21.30
2023-05-14T17:31:33.230Z,20.40
2023-05-14T17:36:31.533Z,20.00
2023-05-14T17:39:00.900Z,20.20
2023-05-14T17:41:27.671Z,20.50
2023-05-14T17:46:24.116Z,20.20
2023-05-14T17:48:53.391Z,20.40
2023-05-14T17:51:22.447Z,20.20
2023-05-14T17:53:49.120Z,19.60
2023-05-14T17:56:18.560Z,19.50
2023-05-14T17:58:45.993Z,19.50
2023-05-14T18:01:12.714Z,19.70
2023-05-14T18:03:39.582Z,19.90
2023-05-14T18:06:06.604Z,19.90
2023-05-14T18:08:35.497Z,20.10
2023-05-14T18:11:02.224Z,20.20
2023-05-14T18:13:30.114Z,20.50
2023-05-14T18:16:00.613Z,20.70
2023-05-14T18:18:27.526Z,20.70
2023-05-14T18:20:56.439Z,20.60
2023-05-14T18:23:23.245Z,20.30
2023-05-14T18:25:53.016Z,20.60
2023-05-14T18:28:21.375Z,20.20
2023-05-14T18:30:49.190Z,19.90
2023-05-14T18:33:20.389Z,19.80
2023-05-14T18:35:47.139Z,19.60
2023-05-14T18:38:13.926Z,19.50
2023-05-14T18:40:40.900Z,19.30
2023-05-14T18:43:11.476Z,19.80
2023-05-14T18:45:39.386Z,18.90
2023-05-14T18:48:06.494Z,18.90
2023-05-14T18:50:37.395Z,18.70
2023-05-14T18:53:10.231Z,18.70
2023-05-14T18:58:04.160Z,18.50
2023-05-14T19:00:33.069Z,18.60
2023-05-14T19:02:59.767Z,18.40
2023-05-14T19:08:09.280Z,18.40
2023-05-14T19:13:03.245Z,18.20
2023-05-14T19:15:32.431Z,18.20
2023-05-14T19:17:59.458Z,18.10
2023-05-14T19:20:28.669Z,18.10
2023-05-14T19:22:57.710Z,18.10
2023-05-14T19:25:24.696Z,18.10
2023-05-14T19:30:21.204Z,18.00
2023-05-14T19:35:15.616Z,17.80
2023-05-14T19:37:45.990Z,17.80
2023-05-14T19:42:46.662Z,17.70
2023-05-14T19:45:15.615Z,17.70
2023-05-14T19:47:42.841Z,17.60
2023-05-14T19:50:09.994Z,17.60
2023-05-14T19:52:38.984Z,17.50
2023-05-14T19:55:08.369Z,17.50
2023-05-14T19:57:39.980Z,17.50
2023-05-14T20:00:10.498Z,17.40
2023-05-14T20:02:42.023Z,17.50
2023-05-14T20:05:09.516Z,17.40
2023-05-14T20:10:09.520Z,17.40
2023-05-14T20:12:36.250Z,17.30
2023-05-14T20:15:04.073Z,17.20
2023-05-14T20:17:30.990Z,17.20
2023-05-14T20:19:58.089Z,17.20
2023-05-14T20:22:27.041Z,17.10
2023-05-14T20:24:53.703Z,17.00
2023-05-14T20:27:23.107Z,16.90
2023-05-14T20:29:53.936Z,17.00
2023-05-14T20:32:24.974Z,16.70
2023-05-14T20:34:54.398Z,16.60
2023-05-14T20:37:21.635Z,16.60
2023-05-14T20:39:48.384Z,16.60
2023-05-14T20:42:19.737Z,16.60
2023-05-14T20:44:48.312Z,16.50
2023-05-14T20:47:20.035Z,16.50
2023-05-14T20:52:15.868Z,16.40
2023-05-14T20:54:43.063Z,16.50
2023-05-14T20:57:10.963Z,16.40
2023-05-14T20:59:37.805Z,16.30
2023-05-14T21:02:07.887Z,16.20
2023-05-14T21:04:37.500Z,16.20
2023-05-14T21:09:34.262Z,16.10
2023-05-14T21:12:03.345Z,16.10
2023-05-14T21:14:32.214Z,16.10
2023-05-14T21:16:58.981Z,16.10
2023-05-14T21:19:27.871Z,16.00
2023-05-14T21:21:54.587Z,15.90
2023-05-14T21:24:21.472Z,16.00
2023-05-14T21:29:17.414Z,15.90
2023-05-14T21:31:47.017Z,15.90
2023-05-14T21:34:16.097Z,15.70
2023-05-14T21:36:42.807Z,15.80
2023-05-14T21:41:39.242Z,15.80
2023-05-14T21:44:05.941Z,15.90
2023-05-14T21:46:35.050Z,15.80
2023-05-14T21:49:03.920Z,15.80
2023-05-14T21:51:32.038Z,15.80
2023-05-14T21:53:58.824Z,15.80
2023-05-14T21:56:26.258Z,15.80
2023-05-14T21:58:56.032Z,15.70
2023-05-14T22:01:22.968Z,15.60
2023-05-14T22:03:52.133Z,15.60
2023-05-14T22:06:21.401Z,15.60
2023-05-14T22:08:50.628Z,16.00
2023-05-14T22:11:17.266Z,15.70
2023-05-14T22:13:46.392Z,15.60
2023-05-14T22:16:13.964Z,15.60
2023-05-14T22:18:41.443Z,15.60
2023-05-14T22:21:08.165Z,15.60
2023-05-14T22:23:34.878Z,15.90
2023-05-14T22:26:01.527Z,15.50
2023-05-14T22:28:28.300Z,15.50
2023-05-14T22:30:59.727Z,15.50
2023-05-14T22:33:26.540Z,15.40
2023-05-14T22:35:53.605Z,15.30
2023-05-14T22:38:20.933Z,15.40
2023-05-14T22:40:47.595Z,15.30
2023-05-14T22:43:18.964Z,15.30
2023-05-14T22:45:47.879Z,15.40
2023-05-14T22:48:17.755Z,15.40
2023-05-14T22:50:44.619Z,15.40
2023-05-14T22:53:11.383Z,15.30
2023-05-14T22:55:40.634Z,15.30
2023-05-14T22:58:09.548Z,15.20
2023-05-14T23:00:36.390Z,15.20
2023-05-14T23:03:07.757Z,15.10
2023-05-14T23:05:34.570Z,15.10
2023-05-14T23:08:03.833Z,15.10
2023-05-14T23:10:30.593Z,15.20
2023-05-14T23:12:59.545Z,15.80
2023-05-14T23:15:29.204Z,15.60
2023-05-14T23:17:56.088Z,15.10
2023-05-14T23:20:25.165Z,15.30
2023-05-14T23:22:56.564Z,15.10
2023-05-14T23:25:23.862Z,15.10
2023-05-14T23:27:50.780Z,15.00
2023-05-14T23:30:17.680Z,15.40
2023-05-14T23:32:44.453Z,15.00
2023-05-14T23:35:11.173Z,14.90
2023-05-14T23:37:42.400Z,14.90
2023-05-14T23:40:11.790Z,14.90
2023-05-14T23:42:38.470Z,14.90
2023-05-14T23:45:08.229Z,15.00
2023-05-14T23:47:35.268Z,15.00
2023-05-14T23:50:02.296Z,15.00
2023-05-14T23:52:31.228Z,15.00
2023-05-14T23:54:57.914Z,14.80
2023-05-14T23:57:24.737Z,14.90
2023-05-14T23:59:51.419Z,14.80
